Time;durP1;ratioP1;P1;durP2;ratioP2;P2;SDS_P1;SDS_P2;PMS_P1;PMS_P2;Temp;Humidity;BMP_temperature;BMP_pressure;BME280_temperature;BME280_humidity;BME280_pressure;Samples;Min_cycle;Max_cycle;Signal;HPM_P1;HPM_P2
2022/07/17 00:01:47;;;;;;;1.50;1.40;;;15.30;99.90;;;;;;483454;245;29251;-69
2022/07/17 00:03:49;;;;;;;1.83;1.70;;;15.20;99.90;;;;;;483473;245;29348;-68
2022/07/17 00:05:50;;;;;;;1.97;1.60;;;15.20;99.90;;;;;;483442;245;28926;-68
2022/07/17 00:07:51;;;;;;;1.60;1.50;;;15.20;99.90;;;;;;483438;245;28868;-68
2022/07/17 00:09:53;;;;;;;2.47;1.73;;;15.30;99.90;;;;;;483448;245;28768;-69
2022/07/17 00:11:54;;;;;;;2.03;1.83;;;15.50;99.90;;;;;;483374;246;28837;-69
2022/07/17 00:13:55;;;;;;;1.80;1.70;;;15.50;99.90;;;;;;483443;245;28894;-68
2022/07/17 00:15:56;;;;;;;2.13;2.00;;;15.60;99.90;;;;;;483430;245;28830;-68
2022/07/17 00:17:57;;;;;;;4.17;2.13;;;15.70;99.90;;;;;;483433;245;29558;-72
2022/07/17 00:19:59;;;;;;;3.43;2.00;;;15.70;99.90;;;;;;483444;245;28825;-68
2022/07/17 00:22:00;;;;;;;3.30;1.80;;;15.70;99.90;;;;;;483453;245;29319;-69
2022/07/17 00:24:01;;;;;;;2.20;2.00;;;15.70;99.90;;;;;;483442;245;29248;-69
2022/07/17 00:26:02;;;;;;;1.80;1.70;;;15.70;99.90;;;;;;483446;245;29286;-68
2022/07/17 00:28:04;;;;;;;1.93;1.83;;;15.70;99.90;;;;;;483411;245;29283;-71
2022/07/17 00:30:05;;;;;;;1.50;1.40;;;15.70;99.90;;;;;;483258;245;28859;-68
2022/07/17 00:32:06;;;;;;;2.37;1.67;;;15.70;99.90;;;;;;483388;245;28857;-69
2022/07/17 00:34:07;;;;;;;1.80;1.70;;;15.70;99.90;;;;;;483412;245;28775;-68
2022/07/17 00:36:09;;;;;;;2.13;1.90;;;15.60;99.90;;;;;;483418;245;28810;-68
2022/07/17 00:38:10;;;;;;;2.97;1.80;;;15.60;99.90;;;;;;483451;245;28722;-72
2022/07/17 00:40:11;;;;;;;1.50;1.40;;;15.60;99.90;;;;;;483466;246;28687;-68
2022/07/17 00:42:12;;;;;;;1.50;1.40;;;15.40;99.90;;;;;;483474;245;28718;-70
2022/07/17 00:44:14;;;;;;;1.70;1.60;;;15.30;99.90;;;;;;483473;245;28732;-68
2022/07/17 00:46:15;;;;;;;3.10;1.60;;;15.10;99.90;;;;;;483444;245;28715;-69
2022/07/17 00:48:16;;;;;;;1.53;1.40;;;15.00;99.90;;;;;;483472;245;29206;-73
2022/07/17 00:50:17;;;;;;;1.57;1.47;;;14.90;99.90;;;;;;483463;245;29240;-68
2022/07/17 00:52:19;;;;;;;1.50;1.40;;;14.90;99.90;;;;;;483444;245;29423;-69
2022/07/17 00:54:20;;;;;;;1.40;1.33;;;14.80;99.90;;;;;;483470;245;28771;-68
2022/07/17 00:56:22;;;;;;;1.60;1.50;;;14.80;99.90;;;;;;483454;245;28870;-68
2022/07/17 00:58:22;;;;;;;1.90;1.73;;;14.70;99.90;;;;;;483442;245;28886;-72
2022/07/17 01:00:24;;;;;;;1.80;1.70;;;14.70;99.90;;;;;;483462;245;28829;-67
2022/07/17 01:02:25;;;;;;;1.60;1.50;;;14.70;99.90;;;;;;483437;245;28829;-67
2022/07/17 01:04:26;;;;;;;1.37;1.30;;;14.70;99.90;;;;;;483462;245;28488;-68
2022/07/17 01:06:27;;;;;;;1.27;1.27;;;14.70;99.90;;;;;;483442;245;28703;-68
2022/07/17 01:08:29;;;;;;;1.50;1.40;;;14.70;99.90;;;;;;483457;245;28822;-69
2022/07/17 01:10:30;;;;;;;1.60;1.50;;;14.60;99.90;;;;;;483459;245;28664;-68
2022/07/17 01:12:31;;;;;;;1.53;1.43;;;14.50;99.90;;;;;;483468;245;29425;-68
2022/07/17 01:14:32;;;;;;;1.60;1.50;;;14.40;99.90;;;;;;483460;245;29381;-68
2022/07/17 01:16:34;;;;;;;1.67;1.57;;;14.40;99.90;;;;;;483358;245;29305;-69
2022/07/17 01:18:35;;;;;;;1.60;1.50;;;14.40;99.90;;;;;;483433;245;29288;-71
2022/07/17 01:20:36;;;;;;;1.50;1.43;;;14.40;99.90;;;;;;483471;245;28785;-67
2022/07/17 01:22:37;;;;;;;1.60;1.50;;;14.30;99.90;;;;;;483445;245;28817;-69
2022/07/17 01:24:39;;;;;;;1.60;1.50;;;14.30;99.90;;;;;;483477;245;28864;-68
2022/07/17 01:26:40;;;;;;;1.90;1.80;;;14.20;99.90;;;;;;483471;245;28361;-68
2022/07/17 01:28:41;;;;;;;1.80;1.50;;;14.20;99.90;;;;;;483488;246;28424;-72
2022/07/17 01:30:42;;;;;;;1.60;1.50;;;14.10;99.90;;;;;;483477;245;28395;-68
2022/07/17 01:32:44;;;;;;;1.77;1.67;;;13.90;99.90;;;;;;483440;246;28431;-68
2022/07/17 01:34:45;;;;;;;1.70;1.60;;;13.90;99.90;;;;;;483471;245;28830;-67
2022/07/17 01:36:46;;;;;;;1.73;1.63;;;13.90;99.90;;;;;;483441;245;28501;-68
2022/07/17 01:38:47;;;;;;;1.60;1.50;;;13.90;99.90;;;;;;483463;245;28903;-72
2022/07/17 01:40:49;;;;;;;1.67;1.57;;;13.90;99.90;;;;;;483448;243;28860;-68
2022/07/17 01:42:50;;;;;;;1.90;1.80;;;13.90;99.90;;;;;;483440;245;28971;-68
2022/07/17 01:44:51;;;;;;;1.73;1.63;;;13.80;99.90;;;;;;483428;246;28255;-68
2022/07/17 01:46:52;;;;;;;1.67;1.57;;;13.80;99.90;;;;;;483450;245;28525;-68
2022/07/17 01:48:54;;;;;;;1.50;1.40;;;13.80;99.90;;;;;;483448;246;28194;-71
2022/07/17 01:50:55;;;;;;;1.70;1.60;;;13.90;99.90;;;;;;483431;245;28846;-68
2022/07/17 01:52:56;;;;;;;1.70;1.60;;;13.80;99.90;;;;;;483431;245;28436;-68
2022/07/17 01:54:57;;;;;;;1.70;1.60;;;13.80;99.90;;;;;;483232;245;28244;-67
2022/07/17 01:56:59;;;;;;;1.80;1.70;;;13.80;99.90;;;;;;483314;245;28385;-67
2022/07/17 01:59:00;;;;;;;1.80;1.70;;;13.80;99.90;;;;;;483425;245;28655;-70
2022/07/17 02:01:01;;;;;;;2.20;1.80;;;13.70;99.90;;;;;;483432;245;28345;-68
2022/07/17 02:03:02;;;;;;;1.77;1.67;;;13.70;99.90;;;;;;483411;245;28906;-69
2022/07/17 02:05:04;;;;;;;1.70;1.60;;;13.40;99.90;;;;;;483430;245;28870;-68
2022/07/17 02:07:05;;;;;;;1.50;1.40;;;13.20;99.90;;;;;;483426;245;28845;-68
2022/07/17 02:09:06;;;;;;;1.70;1.60;;;13.20;99.90;;;;;;483468;245;28282;-71
2022/07/17 02:11:07;;;;;;;1.87;1.77;;;13.10;99.90;;;;;;483458;245;28256;-68
2022/07/17 02:13:09;;;;;;;2.30;1.80;;;13.20;99.90;;;;;;483457;245;28179;-70
2022/07/17 02:15:10;;;;;;;2.10;1.90;;;13.20;99.90;;;;;;483466;245;28233;-68
2022/07/17 02:17:11;;;;;;;2.03;1.40;;;13.20;99.90;;;;;;483446;245;28384;-68
2022/07/17 02:19:12;;;;;;;1.70;1.60;;;13.30;99.90;;;;;;483462;245;28289;-73
2022/07/17 02:21:14;;;;;;;1.73;1.60;;;13.30;99.90;;;;;;483434;246;28205;-68
2022/07/17 02:23:15;;;;;;;1.50;1.40;;;13.30;99.90;;;;;;483448;246;28191;-69
2022/07/17 02:25:16;;;;;;;1.60;1.50;;;13.30;99.90;;;;;;483469;245;28215;-71
2022/07/17 02:27:17;;;;;;;1.90;1.80;;;13.20;99.90;;;;;;483452;245;28900;-68
2022/07/17 02:29:19;;;;;;;3.10;1.70;;;13.10;99.90;;;;;;483447;245;28657;-71
2022/07/17 02:31:20;;;;;;;1.80;1.70;;;12.90;99.90;;;;;;483400;245;28613;-68
2022/07/17 02:33:21;;;;;;;1.60;1.50;;;12.70;99.90;;;;;;483469;245;28670;-69
2022/07/17 02:35:22;;;;;;;1.73;1.63;;;12.60;99.90;;;;;;483445;245;28173;-68
2022/07/17 02:37:24;;;;;;;1.87;1.50;;;12.70;99.90;;;;;;483380;246;28276;-68
2022/07/17 02:39:25;;;;;;;1.60;1.50;;;12.60;99.90;;;;;;483445;245;28256;-71
2022/07/17 02:41:26;;;;;;;1.60;1.50;;;12.70;99.90;;;;;;483453;245;28291;-67
2022/07/17 02:43:27;;;;;;;1.93;1.83;;;12.70;99.90;;;;;;483480;245;28351;-69
2022/07/17 02:45:29;;;;;;;2.30;2.10;;;12.70;99.90;;;;;;483487;245;28340;-68
2022/07/17 02:47:30;;;;;;;1.80;1.70;;;12.60;99.90;;;;;;483450;245;28185;-68
2022/07/17 02:49:31;;;;;;;1.80;1.70;;;12.50;99.90;;;;;;483446;245;28195;-72
2022/07/17 02:51:32;;;;;;;1.97;1.87;;;12.50;99.90;;;;;;483370;246;28173;-68
2022/07/17 02:53:34;;;;;;;2.23;1.87;;;12.50;99.90;;;;;;483375;246;28845;-68
2022/07/17 02:55:35;;;;;;;1.70;1.60;;;12.50;99.90;;;;;;483447;245;29226;-67
2022/07/17 02:57:36;;;;;;;1.87;1.77;;;12.40;99.90;;;;;;483438;245;29118;-68
2022/07/17 02:59:37;;;;;;;2.00;1.80;;;12.30;99.90;;;;;;483466;245;28314;-70
2022/07/17 03:01:39;;;;;;;1.80;1.70;;;12.30;99.90;;;;;;483451;245;28281;-67
2022/07/17 03:03:41;;;;;;;1.93;1.77;;;12.30;99.90;;;;;;483432;245;28423;-67
2022/07/17 03:05:41;;;;;;;1.90;1.80;;;12.20;99.90;;;;;;483418;245;28284;-67
2022/07/17 03:07:43;;;;;;;1.80;1.70;;;12.10;99.90;;;;;;483449;245;28174;-68
2022/07/17 03:09:44;;;;;;;1.70;1.60;;;12.00;99.90;;;;;;483400;246;28547;-72
2022/07/17 03:11:45;;;;;;;2.23;2.03;;;11.90;99.90;;;;;;483406;245;28398;-67
2022/07/17 03:13:46;;;;;;;2.10;1.90;;;11.80;99.90;;;;;;483406;245;28950;-68
2022/07/17 03:15:47;;;;;;;1.70;1.60;;;11.80;99.90;;;;;;483369;245;28770;-67
2022/07/17 03:17:49;;;;;;;1.70;1.60;;;11.70;99.90;;;;;;483232;245;28801;-67
2022/07/17 03:19:50;;;;;;;1.80;1.70;;;11.70;99.90;;;;;;483207;245;28551;-70
2022/07/17 03:21:51;;;;;;;1.73;1.63;;;11.80;99.90;;;;;;483286;245;28922;-68
2022/07/17 03:23:52;;;;;;;2.00;1.80;;;11.80;99.90;;;;;;483408;245;28486;-69
2022/07/17 03:25:54;;;;;;;2.10;1.87;;;11.70;99.90;;;;;;483442;245;28528;-68
2022/07/17 03:27:55;;;;;;;1.90;1.80;;;11.80;99.90;;;;;;483430;245;28392;-67
2022/07/17 03:29:56;;;;;;;1.87;1.77;;;11.90;99.90;;;;;;483443;245;28158;-70
2022/07/17 03:31:57;;;;;;;1.73;1.63;;;12.00;99.90;;;;;;483426;245;28575;-67
2022/07/17 03:33:59;;;;;;;1.90;1.70;;;12.10;99.90;;;;;;483394;245;28072;-69
2022/07/17 03:36:00;;;;;;;1.80;1.70;;;11.90;99.90;;;;;;483440;245;28352;-68
2022/07/17 03:38:01;;;;;;;1.97;1.87;;;11.80;99.90;;;;;;483428;245;28457;-68
2022/07/17 03:40:02;;;;;;;1.70;1.60;;;11.90;99.90;;;;;;483430;245;29164;-72
2022/07/17 03:42:04;;;;;;;1.67;1.57;;;12.00;99.90;;;;;;483457;245;28879;-67
2022/07/17 03:44:05;;;;;;;1.80;1.70;;;12.00;99.90;;;;;;483433;245;28945;-71
2022/07/17 03:46:06;;;;;;;1.97;1.87;;;12.00;99.90;;;;;;483440;245;28612;-68
2022/07/17 03:48:07;;;;;;;1.60;1.50;;;12.00;99.90;;;;;;483414;243;28479;-68
2022/07/17 03:50:09;;;;;;;1.60;1.50;;;11.90;99.90;;;;;;483429;245;28401;-71
2022/07/17 03:52:10;;;;;;;1.93;1.83;;;12.00;99.90;;;;;;483387;246;28363;-68
2022/07/17 03:54:11;;;;;;;1.53;1.43;;;12.00;99.90;;;;;;483461;246;28199;-70
2022/07/17 03:56:12;;;;;;;1.87;1.77;;;12.00;99.90;;;;;;483458;245;28394;-68
2022/07/17 03:58:14;;;;;;;1.50;1.40;;;12.00;99.90;;;;;;483406;246;28089;-68
2022/07/17 04:00:15;;;;;;;1.70;1.60;;;12.00;99.90;;;;;;483452;245;28548;-71
2022/07/17 04:02:16;;;;;;;1.63;1.53;;;12.10;99.90;;;;;;483441;245;28759;-68
2022/07/17 04:04:17;;;;;;;1.70;1.60;;;12.10;99.90;;;;;;483435;245;29029;-69
2022/07/17 04:06:19;;;;;;;2.07;1.80;;;12.10;99.90;;;;;;483482;245;28487;-68
2022/07/17 04:08:20;;;;;;;1.73;1.63;;;12.10;99.90;;;;;;483455;245;28989;-68
2022/07/17 04:10:23;;;;;;;1.70;1.60;;;;;;;;;;483452;245;29300;-68
2022/07/17 04:12:24;;;;;;;2.13;1.83;;;12.10;99.90;;;;;;483438;246;27260;-68
2022/07/17 04:14:25;;;;;;;2.00;1.80;;;12.10;99.90;;;;;;483440;245;28492;-68
2022/07/17 04:16:26;;;;;;;1.53;1.40;;;12.10;99.90;;;;;;483436;245;29035;-68
2022/07/17 04:18:27;;;;;;;1.87;1.77;;;12.10;99.90;;;;;;483441;245;28808;-71
2022/07/17 04:20:29;;;;;;;1.70;1.60;;;12.10;99.90;;;;;;483447;245;28897;-67
2022/07/17 04:22:30;;;;;;;1.77;1.67;;;12.10;99.90;;;;;;483437;245;29439;-68
2022/07/17 04:24:31;;;;;;;1.70;1.60;;;12.10;99.90;;;;;;483448;245;28368;-67
2022/07/17 04:26:32;;;;;;;1.60;1.50;;;12.20;99.90;;;;;;483386;246;28171;-68
2022/07/17 04:28:34;;;;;;;1.70;1.60;;;12.30;99.90;;;;;;483457;245;28076;-68
2022/07/17 04:30:35;;;;;;;1.80;1.70;;;12.30;99.90;;;;;;483443;245;28303;-68
2022/07/17 04:32:36;;;;;;;1.70;1.60;;;12.40;99.90;;;;;;483422;245;28210;-69
2022/07/17 04:34:38;;;;;;;1.97;1.87;;;12.40;99.90;;;;;;483443;246;28151;-67
2022/07/17 04:36:39;;;;;;;1.97;1.87;;;12.50;99.90;;;;;;483428;245;28026;-67
2022/07/17 04:38:40;;;;;;;1.70;1.60;;;12.40;99.90;;;;;;483461;245;28889;-72
2022/07/17 04:40:41;;;;;;;1.60;1.50;;;12.40;99.90;;;;;;483448;245;28325;-69
2022/07/17 04:42:43;;;;;;;1.70;1.60;;;12.30;99.90;;;;;;483444;245;28807;-69
2022/07/17 04:44:44;;;;;;;1.90;1.80;;;12.20;99.90;;;;;;483440;246;28823;-67
2022/07/17 04:46:45;;;;;;;2.90;1.67;;;12.30;99.90;;;;;;483405;246;28523;-68
2022/07/17 04:48:46;;;;;;;1.73;1.63;;;12.30;99.90;;;;;;483451;245;28908;-72
2022/07/17 04:50:48;;;;;;;1.80;1.70;;;12.30;99.90;;;;;;483438;245;28595;-68
2022/07/17 04:52:49;;;;;;;1.63;1.53;;;12.30;99.90;;;;;;483438;246;28795;-68
2022/07/17 04:54:50;;;;;;;1.80;1.70;;;12.40;99.90;;;;;;483427;245;28630;-70
2022/07/17 04:56:51;;;;;;;1.80;1.80;;;12.40;99.90;;;;;;483439;246;28210;-68
2022/07/17 04:58:53;;;;;;;2.30;2.20;;;12.50;99.90;;;;;;483451;245;28213;-72
2022/07/17 05:00:54;;;;;;;2.10;2.00;;;12.60;99.90;;;;;;483457;246;28308;-68
2022/07/17 05:02:55;;;;;;;2.30;2.10;;;12.70;99.90;;;;;;483415;245;28324;-69
2022/07/17 05:04:56;;;;;;;2.20;2.10;;;12.80;99.90;;;;;;483389;245;28265;-67
2022/07/17 05:06:58;;;;;;;1.90;1.80;;;12.90;99.90;;;;;;483416;245;28202;-68
2022/07/17 05:08:59;;;;;;;2.30;2.10;;;12.90;99.90;;;;;;483394;245;28733;-71
2022/07/17 05:11:00;;;;;;;2.00;1.90;;;13.00;99.90;;;;;;483445;245;28179;-67
2022/07/17 05:13:01;;;;;;;2.00;1.90;;;13.00;99.90;;;;;;483425;245;28424;-68
2022/07/17 05:15:03;;;;;;;2.00;1.90;;;12.90;99.90;;;;;;483421;245;28768;-67
2022/07/17 05:17:04;;;;;;;1.90;1.80;;;12.80;99.90;;;;;;483394;245;28782;-68
2022/07/17 05:19:05;;;;;;;2.10;2.00;;;12.70;99.90;;;;;;483428;245;28847;-68
2022/07/17 05:21:07;;;;;;;2.17;2.00;;;12.70;99.90;;;;;;483435;245;28686;-68
2022/07/17 05:23:08;;;;;;;2.10;1.90;;;12.60;99.90;;;;;;483484;245;28711;-69
2022/07/17 05:25:09;;;;;;;1.73;1.63;;;12.70;99.90;;;;;;483499;245;28167;-67
2022/07/17 05:27:11;;;;;;;1.73;1.63;;;12.80;99.90;;;;;;483478;245;28230;-69
2022/07/17 05:29:11;;;;;;;1.87;1.77;;;13.00;99.90;;;;;;483486;245;28233;-72
2022/07/17 05:31:13;;;;;;;1.77;1.67;;;13.10;99.90;;;;;;483458;245;28146;-68
2022/07/17 05:33:14;;;;;;;1.97;1.87;;;13.10;99.90;;;;;;483477;245;28197;-70
2022/07/17 05:35:16;;;;;;;1.83;1.73;;;;;;;;;;483409;245;28406;-68
2022/07/17 05:37:18;;;;;;;1.50;1.40;;;13.30;99.90;;;;;;483458;246;27139;-71
2022/07/17 05:39:19;;;;;;;1.60;1.50;;;13.50;99.90;;;;;;483466;246;28148;-68
2022/07/17 05:41:20;;;;;;;1.67;1.57;;;13.60;99.90;;;;;;483460;245;28343;-68
2022/07/17 05:43:21;;;;;;;1.73;1.63;;;13.70;99.90;;;;;;483435;245;28379;-68
2022/07/17 05:45:23;;;;;;;4.10;1.60;;;13.90;99.90;;;;;;483447;245;28235;-68
2022/07/17 05:47:24;;;;;;;3.80;1.90;;;14.10;99.90;;;;;;483470;245;28495;-72
2022/07/17 05:49:25;;;;;;;1.70;1.60;;;14.30;99.90;;;;;;483454;245;28288;-67
2022/07/17 05:51:26;;;;;;;1.60;1.50;;;14.50;99.90;;;;;;483461;245;28504;-69
2022/07/17 05:53:28;;;;;;;2.20;1.90;;;14.70;99.90;;;;;;483452;245;28449;-68
2022/07/17 05:55:29;;;;;;;2.77;1.97;;;14.70;99.90;;;;;;483486;245;28248;-68
2022/07/17 05:57:30;;;;;;;1.93;1.70;;;14.70;99.90;;;;;;483408;245;28994;-72
2022/07/17 05:59:31;;;;;;;2.30;1.50;;;15.00;99.90;;;;;;483461;245;29236;-68
2022/07/17 06:01:33;;;;;;;4.53;1.83;;;15.10;99.90;;;;;;483435;245;29271;-69
2022/07/17 06:03:34;;;;;;;2.60;1.70;;;15.20;99.90;;;;;;483451;245;28835;-68
2022/07/17 06:05:35;;;;;;;2.13;1.93;;;15.30;99.90;;;;;;483437;245;28706;-68
2022/07/17 06:07:36;;;;;;;1.90;1.80;;;15.30;99.90;;;;;;483457;246;28810;-71
2022/07/17 06:09:38;;;;;;;4.80;2.17;;;15.40;99.90;;;;;;483450;245;28802;-68
2022/07/17 06:11:39;;;;;;;1.77;1.67;;;15.50;99.90;;;;;;483441;245;28867;-68
2022/07/17 06:13:40;;;;;;;3.17;2.00;;;15.60;99.90;;;;;;483444;246;28792;-70
2022/07/17 06:15:41;;;;;;;2.30;2.00;;;15.60;99.90;;;;;;483445;245;28896;-69
2022/07/17 06:17:43;;;;;;;2.90;1.70;;;15.80;99.90;;;;;;483456;245;28908;-70
2022/07/17 06:19:44;;;;;;;6.50;1.90;;;15.80;99.90;;;;;;483458;245;28911;-68
2022/07/17 06:21:45;;;;;;;2.23;2.07;;;15.80;99.90;;;;;;483441;245;29318;-68
2022/07/17 06:23:46;;;;;;;5.17;1.90;;;15.90;99.90;;;;;;483440;245;30000;-68
2022/07/17 06:25:48;;;;;;;2.50;1.77;;;16.00;99.90;;;;;;483456;245;29378;-68
2022/07/17 06:27:49;;;;;;;2.23;1.70;;;16.00;99.90;;;;;;483443;245;28882;-71
2022/07/17 06:29:50;;;;;;;3.87;2.23;;;16.10;99.90;;;;;;483435;245;28793;-68
2022/07/17 06:31:51;;;;;;;2.50;2.00;;;16.10;99.90;;;;;;483450;245;28813;-69
2022/07/17 06:33:53;;;;;;;1.70;1.60;;;16.20;99.90;;;;;;483431;245;28791;-68
2022/07/17 06:35:54;;;;;;;2.87;1.83;;;16.20;99.90;;;;;;483065;245;29213;-68
2022/07/17 06:37:55;;;;;;;7.20;2.00;;;16.20;99.90;;;;;;483453;245;28917;-72
2022/07/17 06:39:56;;;;;;;3.43;2.10;;;16.30;99.90;;;;;;483450;245;28795;-69
2022/07/17 06:41:58;;;;;;;6.03;2.03;;;16.40;99.90;;;;;;483450;245;28901;-69
2022/07/17 06:43:59;;;;;;;2.57;2.17;;;16.50;99.90;;;;;;483454;246;28780;-68
2022/07/17 06:46:00;;;;;;;6.83;2.20;;;16.60;99.90;;;;;;483460;245;29270;-68
2022/07/17 06:48:01;;;;;;;2.80;1.77;;;16.80;99.90;;;;;;483476;245;29264;-72
2022/07/17 06:50:03;;;;;;;1.93;1.60;;;16.80;99.90;;;;;;483462;246;29228;-68
2022/07/17 06:52:04;;;;;;;2.37;2.07;;;16.90;99.90;;;;;;483475;245;29376;-69
2022/07/17 06:54:05;;;;;;;1.83;1.73;;;17.00;99.90;;;;;;483445;245;28781;-68
2022/07/17 06:56:06;;;;;;;3.13;1.63;;;17.10;99.90;;;;;;483438;245;28904;-68
2022/07/17 06:58:08;;;;;;;3.70;1.87;;;17.20;99.90;;;;;;483471;245;28826;-72
2022/07/17 07:00:09;;;;;;;1.80;1.70;;;17.30;99.90;;;;;;483460;245;28867;-69
2022/07/17 07:02:10;;;;;;;5.07;2.30;;;17.40;99.90;;;;;;483419;245;28819;-71
2022/07/17 07:04:11;;;;;;;2.30;1.90;;;17.40;99.90;;;;;;483450;245;28828;-69
2022/07/17 07:06:13;;;;;;;4.20;2.00;;;17.50;99.90;;;;;;483451;245;28828;-69
2022/07/17 07:08:14;;;;;;;3.27;1.80;;;17.50;99.90;;;;;;483461;245;29180;-72
2022/07/17 07:10:15;;;;;;;2.10;1.90;;;17.50;99.90;;;;;;483172;245;29166;-69
2022/07/17 07:12:16;;;;;;;1.70;1.60;;;17.60;99.90;;;;;;483431;245;29373;-69
2022/07/17 07:14:18;;;;;;;6.07;2.20;;;17.80;99.90;;;;;;483439;245;29237;-69
2022/07/17 07:16:20;;;;;;;3.60;2.03;;;17.80;99.90;;;;;;483463;246;29385;-69
2022/07/17 07:18:20;;;;;;;3.57;1.80;;;18.00;99.90;;;;;;483430;246;28908;-68
2022/07/17 07:20:21;;;;;;;1.70;1.60;;;18.00;99.90;;;;;;483466;245;28772;-69
2022/07/17 07:22:23;;;;;;;2.87;1.97;;;18.10;99.90;;;;;;483463;245;28819;-70
2022/07/17 07:24:24;;;;;;;3.77;2.30;;;18.20;99.90;;;;;;483459;245;28817;-68
2022/07/17 07:26:25;;;;;;;5.40;1.90;;;18.20;99.90;;;;;;483438;246;28804;-69
2022/07/17 07:28:27;;;;;;;5.50;1.93;;;18.30;99.90;;;;;;483415;245;28781;-68
2022/07/17 07:30:28;;;;;;;2.70;1.90;;;18.30;99.90;;;;;;483465;246;28799;-70
2022/07/17 07:32:29;;;;;;;3.00;2.00;;;18.30;99.90;;;;;;483444;245;28838;-70
2022/07/17 07:34:30;;;;;;;2.20;2.00;;;18.50;99.90;;;;;;483433;245;28869;-69
2022/07/17 07:36:31;;;;;;;4.60;2.23;;;18.60;99.90;;;;;;483416;245;29937;-69
2022/07/17 07:38:33;;;;;;;6.10;1.87;;;18.60;99.90;;;;;;483381;245;30021;-68
2022/07/17 07:40:34;;;;;;;4.27;2.23;;;18.70;99.90;;;;;;483455;245;29329;-68
2022/07/17 07:42:35;;;;;;;11.63;3.07;;;18.70;99.90;;;;;;483414;245;28914;-71
2022/07/17 07:44:36;;;;;;;2.07;1.87;;;18.90;99.90;;;;;;483444;245;28791;-68
2022/07/17 07:46:38;;;;;;;2.70;1.97;;;18.90;99.90;;;;;;483424;245;28813;-70
2022/07/17 07:48:39;;;;;;;2.70;2.00;;;18.90;99.90;;;;;;483456;245;28788;-70
2022/07/17 07:50:40;;;;;;;2.13;1.80;;;19.00;99.90;;;;;;483472;245;28901;-69
2022/07/17 07:52:41;;;;;;;2.03;1.93;;;19.10;99.90;;;;;;483480;245;28831;-72
2022/07/17 07:54:43;;;;;;;1.87;1.60;;;19.10;99.90;;;;;;483471;246;28798;-68
2022/07/17 07:56:44;;;;;;;2.10;1.77;;;19.20;99.90;;;;;;483450;245;28885;-70
2022/07/17 07:58:45;;;;;;;4.40;1.77;;;19.10;99.90;;;;;;483440;246;28775;-69
2022/07/17 08:00:46;;;;;;;5.23;2.17;;;19.30;99.90;;;;;;483457;245;29240;-69
2022/07/17 08:02:48;;;;;;;2.90;1.70;;;19.30;99.90;;;;;;483454;245;29286;-71
2022/07/17 08:04:49;;;;;;;2.17;1.80;;;19.30;99.90;;;;;;483449;245;29311;-69
2022/07/17 08:06:50;;;;;;;4.40;1.90;;;19.40;99.90;;;;;;483435;246;28880;-69
2022/07/17 08:08:51;;;;;;;3.80;2.07;;;19.60;99.90;;;;;;483458;245;28784;-68
2022/07/17 08:10:53;;;;;;;2.30;1.50;;;19.40;99.90;;;;;;483461;245;28775;-69
2022/07/17 08:12:54;;;;;;;4.90;2.10;;;19.30;99.90;;;;;;483453;245;28910;-70
2022/07/17 08:14:55;;;;;;;2.07;1.97;;;19.60;99.90;;;;;;483436;245;28794;-68
2022/07/17 08:16:56;;;;;;;2.13;1.87;;;19.40;99.90;;;;;;483438;245;28820;-69
2022/07/17 08:18:58;;;;;;;2.50;2.03;;;19.60;99.90;;;;;;483445;245;28809;-72
2022/07/17 08:20:59;;;;;;;3.13;2.00;;;19.80;99.90;;;;;;483462;245;28786;-68
2022/07/17 08:23:00;;;;;;;3.97;2.07;;;19.90;99.90;;;;;;483442;245;28836;-69
2022/07/17 08:25:02;;;;;;;2.53;2.17;;;19.80;99.90;;;;;;483453;245;29216;-68
2022/07/17 08:27:03;;;;;;;2.40;1.83;;;19.90;99.90;;;;;;483332;245;29293;-69
2022/07/17 08:29:04;;;;;;;2.23;2.10;;;19.90;99.90;;;;;;483248;245;30005;-72
2022/07/17 08:31:05;;;;;;;1.93;1.80;;;20.10;99.90;;;;;;483433;244;28791;-68
2022/07/17 08:33:07;;;;;;;5.37;2.03;;;20.10;99.90;;;;;;483365;245;28798;-71
2022/07/17 08:35:08;;;;;;;2.50;1.80;;;20.10;99.90;;;;;;483426;245;28777;-68
2022/07/17 08:37:09;;;;;;;2.83;1.83;;;20.10;99.90;;;;;;483435;245;28884;-69
2022/07/17 08:39:10;;;;;;;5.83;2.60;;;20.10;99.90;;;;;;483448;245;28913;-69
2022/07/17 08:41:15;;;;;;;2.23;2.03;;;20.20;99.90;;;;;;483437;245;28782;-69
2022/07/17 08:43:13;;;;;;;4.20;1.80;;;20.40;99.90;;;;;;483200;246;28821;-70
2022/07/17 08:45:14;;;;;;;6.87;1.97;;;20.40;99.90;;;;;;483438;246;28899;-69
2022/07/17 08:47:15;;;;;;;2.80;2.00;;;20.30;99.90;;;;;;483437;245;28827;-70
2022/07/17 08:49:17;;;;;;;2.30;2.20;;;20.40;99.90;;;;;;483432;245;29312;-72
2022/07/17 08:51:18;;;;;;;2.20;2.00;;;20.50;99.90;;;;;;483414;245;29246;-69
2022/07/17 08:53:19;;;;;;;1.87;1.77;;;20.50;99.90;;;;;;483399;245;29364;-70
2022/07/17 08:55:20;;;;;;;8.63;2.40;;;20.40;99.90;;;;;;483369;245;29325;-69
2022/07/17 08:57:22;;;;;;;2.27;2.07;;;20.80;99.90;;;;;;483395;245;28804;-69
2022/07/17 08:59:23;;;;;;;2.30;2.10;;;20.80;99.90;;;;;;483451;244;28898;-72
2022/07/17 09:01:24;;;;;;;2.53;2.00;;;20.90;99.90;;;;;;483414;246;28902;-69
2022/07/17 09:03:25;;;;;;;5.50;2.00;;;21.00;99.90;;;;;;483437;244;28805;-69
2022/07/17 09:05:27;;;;;;;1.90;1.67;;;21.00;99.90;;;;;;483450;245;28772;-68
2022/07/17 09:07:28;;;;;;;3.43;2.00;;;20.90;99.90;;;;;;483436;246;28789;-69
2022/07/17 09:09:29;;;;;;;1.73;1.63;;;20.90;99.90;;;;;;483479;245;28915;-72
2022/07/17 09:11:30;;;;;;;2.63;1.70;;;20.80;99.90;;;;;;483439;244;28779;-70
2022/07/17 09:13:32;;;;;;;2.17;1.90;;;20.80;99.90;;;;;;483450;243;29353;-69
2022/07/17 09:15:33;;;;;;;4.13;2.00;;;21.20;99.90;;;;;;483400;245;29250;-68
2022/07/17 09:17:34;;;;;;;2.17;2.00;;;21.20;99.90;;;;;;483441;245;29367;-69
2022/07/17 09:19:35;;;;;;;1.70;1.60;;;21.20;99.90;;;;;;483424;245;29184;-72
2022/07/17 09:21:37;;;;;;;2.00;1.60;;;21.20;99.90;;;;;;483456;245;28762;-70
2022/07/17 09:23:38;;;;;;;2.50;1.70;;;21.40;99.90;;;;;;483453;245;28813;-70
2022/07/17 09:25:39;;;;;;;1.90;1.50;;;21.40;99.90;;;;;;483448;245;28802;-69
2022/07/17 09:27:40;;;;;;;2.43;2.00;;;21.40;99.90;;;;;;483463;243;28749;-70
2022/07/17 09:29:42;;;;;;;1.87;1.77;;;21.20;99.90;;;;;;483466;245;28718;-73
2022/07/17 09:31:43;;;;;;;3.33;1.87;;;21.10;99.90;;;;;;483473;243;28686;-69
2022/07/17 09:33:44;;;;;;;2.07;1.97;;;21.30;99.90;;;;;;483467;245;28849;-70
2022/07/17 09:35:45;;;;;;;3.30;1.93;;;21.50;99.90;;;;;;483455;245;28889;-70
2022/07/17 09:37:47;;;;;;;3.33;2.00;;;21.60;99.90;;;;;;483439;245;28711;-69
2022/07/17 09:39:49;;;;;;;2.63;2.30;;;21.70;99.90;;;;;;483461;245;29371;-72
2022/07/17 09:41:49;;;;;;;4.47;2.13;;;22.00;99.90;;;;;;483438;245;29220;-70
2022/07/17 09:43:52;;;;;;;2.27;2.00;;;22.10;99.90;;;;;;483464;246;29294;-69
2022/07/17 09:45:52;;;;;;;2.40;1.93;;;22.00;99.90;;;;;;483323;246;28920;-70
2022/07/17 09:47:53;;;;;;;2.00;1.60;;;21.80;99.90;;;;;;483451;245;28798;-70
2022/07/17 09:49:54;;;;;;;2.10;1.63;;;21.90;99.90;;;;;;483469;245;28821;-73
2022/07/17 09:51:55;;;;;;;1.70;1.60;;;21.90;99.90;;;;;;483455;245;28917;-68
2022/07/17 09:53:57;;;;;;;1.70;1.60;;;21.90;99.90;;;;;;483450;245;28801;-70
2022/07/17 09:55:58;;;;;;;1.53;1.53;;;21.90;99.90;;;;;;483468;245;28685;-69
2022/07/17 09:58:00;;;;;;;2.27;1.73;;;22.00;99.90;;;;;;483408;246;28823;-69
2022/07/17 10:00:00;;;;;;;3.77;1.73;;;22.20;98.60;;;;;;483415;245;28825;-73
2022/07/17 10:02:02;;;;;;;1.30;1.30;;;22.30;98.50;;;;;;483432;245;28787;-69
2022/07/17 10:04:03;;;;;;;2.10;1.50;;;22.50;97.30;;;;;;483452;245;29286;-69
2022/07/17 10:06:04;;;;;;;1.70;1.60;;;22.60;97.00;;;;;;483439;245;29291;-69
2022/07/17 10:08:06;;;;;;;1.90;1.80;;;22.40;95.80;;;;;;483433;245;29266;-70
2022/07/17 10:10:07;;;;;;;1.80;1.70;;;22.60;96.80;;;;;;483473;245;28749;-72
2022/07/17 10:12:08;;;;;;;1.70;1.60;;;22.60;97.40;;;;;;483455;245;28785;-68
2022/07/17 10:14:10;;;;;;;1.90;1.80;;;22.50;97.20;;;;;;483463;245;28814;-70
2022/07/17 10:16:10;;;;;;;2.87;1.50;;;22.50;97.00;;;;;;483262;246;28817;-69
2022/07/17 10:18:12;;;;;;;1.70;1.50;;;22.60;97.30;;;;;;483301;245;28779;-69
2022/07/17 10:20:13;;;;;;;1.70;1.60;;;22.80;97.90;;;;;;483266;245;28816;-72
2022/07/17 10:22:14;;;;;;;1.77;1.60;;;22.40;96.50;;;;;;483394;245;28917;-69
2022/07/17 10:24:15;;;;;;;2.43;1.50;;;22.10;97.50;;;;;;483429;245;29025;-68
2022/07/17 10:26:17;;;;;;;1.70;1.60;;;22.30;97.40;;;;;;483455;245;29213;-72
2022/07/17 10:28:18;;;;;;;3.63;1.70;;;22.70;97.00;;;;;;483456;245;29221;-69
2022/07/17 10:30:19;;;;;;;1.83;1.73;;;22.90;96.40;;;;;;483462;245;29380;-70
2022/07/17 10:32:20;;;;;;;1.97;1.80;;;23.10;96.90;;;;;;483453;245;29225;-69